aviador You're here:

KQDG Decoded Metar

ADANA/INCIRLIK in USA-MIL
Report Time2017-12-15 23:26:00
UTC Time2017-12-15 23:41:47
Flight Rules mvfr MVFR
Wind260° at 11 kt
W.Rank260° ranks 6
Current wind is above 260° avg. (6.9)
Visibility9999 m
Phenomena:N/A
Clouds:Broken 018 Hf
Expected CloudBase > 800 ft AGL from Temp-Dew spread
Ceiling1,800 ft
Temp03°C (ISA -12)
Dew Point01°C (87% RH)
AAT-2.8°C
QNH1010 hPa
Density Alt-965 ft
Elevation240 ft
Report Wrong Elevation
Raw Report
SPECI KQDG 152326Z AUTO 26011KT 9999 BKN018 03/01 A2984 RMK AO2 SLP107
PWINO $=

Extra information for KQDG:More info

Metar Taf Metar & Taf Last 4 Metars F.Rules Stats Wind Profile Meteogram Temp Stats Airport Information Weather charts Add Link Nearby VenuesMetar ALERT Operation Metar Decoded Social comments